ADDS METAR Data INFO
IDs: Format: Raw Decoded Include TAF

Data at: 0732 UTC 16 Jan 2018

METAR for:KSAT (San Antonio Intl, TX, US)
Text:KSAT 160707Z 01015G25KT 10SM -RA BKN014 OVC029 04/01 A3045 RMK AO2 PK WND 02027/0655 P0000 T00390011
Temperature: 3.9°C ( 39°F)
Dewpoint: 1.1°C ( 34°F) [RH = 82%]
Pressure (altimeter):30.45 inches Hg (1031.2 mb)
Winds:from the N (10 degrees) at 17 MPH (15 knots; 7.7 m/s) gusting to 29 MPH (25 knots; 12.9 m/s)
Visibility:10 or more sm (16+ km)
Ceiling:1400 feet AGL
Clouds: broken clouds at 1400 feet AGL, overcast cloud deck at 2900 feet AGL
Weather:-RA (light rain)